Time;durP1;ratioP1;P1;durP2;ratioP2;P2;SDS_P1;SDS_P2;PMS_P1;PMS_P2;Temp;Humidity;BMP_temperature;BMP_pressure;BME280_temperature;BME280_humidity;BME280_pressure;Samples;Min_cycle;Max_cycle;Signal;HPM_P1;HPM_P2
2023/03/08 00:01:02;;;;;;;11.80;2.83;;;1.90;99.90;;;;;;5033786;28;20025;-71
2023/03/08 00:03:28;;;;;;;9.73;3.58;;;1.90;99.90;;;;;;5026883;28;20025;-72
2023/03/08 00:05:53;;;;;;;10.02;2.88;;;1.90;99.90;;;;;;5034008;28;20036;-71
2023/03/08 00:08:19;;;;;;;8.70;2.15;;;1.90;99.90;;;;;;5034385;28;20033;-71
2023/03/08 00:10:45;;;;;;;9.45;2.20;;;1.90;99.90;;;;;;5026024;28;20041;-72
2023/03/08 00:13:11;;;;;;;8.00;2.17;;;1.80;99.90;;;;;;5033714;28;20032;-72
2023/03/08 00:15:37;;;;;;;7.88;2.30;;;1.80;99.90;;;;;;5034533;28;20104;-71
2023/03/08 00:18:04;;;;;;;4.00;1.33;;;1.80;99.90;;;;;;5028963;28;20026;-72
2023/03/08 00:20:39;;;;;;;5.55;1.90;;;1.80;99.90;;;;;;5014756;28;20068;-72
2023/03/08 00:23:07;;;;;;;3.38;1.65;;;1.80;99.90;;;;;;5030119;28;20072;-72
2023/03/08 00:25:34;;;;;;;5.18;1.88;;;1.80;99.90;;;;;;5018897;28;20022;-73
2023/03/08 00:28:00;;;;;;;6.30;1.85;;;1.80;99.90;;;;;;5033615;28;20037;-72
2023/03/08 00:30:26;;;;;;;8.10;2.30;;;1.80;99.90;;;;;;5007811;28;20068;-72
2023/03/08 00:32:51;;;;;;;6.53;1.70;;;1.80;99.90;;;;;;5019882;28;20036;-72
2023/03/08 00:35:20;;;;;;;7.13;1.98;;;1.80;99.90;;;;;;5029445;28;20033;-72
2023/03/08 00:37:45;;;;;;;9.73;2.30;;;1.80;99.90;;;;;;5033010;28;20036;-74
2023/03/08 00:40:11;;;;;;;11.38;2.47;;;1.80;99.90;;;;;;5018526;28;20029;-73
2023/03/08 00:42:37;;;;;;;5.40;1.40;;;1.90;99.90;;;;;;5033832;28;20519;-75
2023/03/08 00:45:03;;;;;;;7.30;1.98;;;1.90;99.90;;;;;;5033525;28;20026;-71
2023/03/08 00:47:28;;;;;;;4.75;1.10;;;1.90;99.90;;;;;;5033588;28;20531;-73
2023/03/08 00:49:54;;;;;;;3.78;1.17;;;1.90;99.90;;;;;;5026602;28;20060;-72
2023/03/08 00:52:19;;;;;;;8.00;1.58;;;1.90;99.90;;;;;;5033638;28;20029;-72
2023/03/08 00:54:45;;;;;;;8.10;1.83;;;2.00;99.90;;;;;;5033581;28;20021;-73
2023/03/08 00:57:10;;;;;;;2.70;0.95;;;2.00;99.90;;;;;;5033631;28;20033;-72
2023/03/08 00:59:36;;;;;;;12.75;1.60;;;2.10;99.90;;;;;;5014743;28;20049;-73
2023/03/08 01:02:01;;;;;;;7.20;1.63;;;2.10;99.90;;;;;;5029263;28;20033;-73
2023/03/08 01:04:27;;;;;;;7.18;1.33;;;2.10;99.90;;;;;;5030347;28;20037;-73
2023/03/08 01:06:53;;;;;;;6.32;2.20;;;2.30;99.90;;;;;;5029670;28;20111;-73
2023/03/08 01:09:18;;;;;;;7.65;1.83;;;2.40;99.90;;;;;;5031851;28;20524;-73
2023/03/08 01:11:44;;;;;;;9.95;2.10;;;2.40;99.90;;;;;;5033302;28;20036;-72
2023/03/08 01:14:09;;;;;;;9.45;2.95;;;2.40;99.90;;;;;;5033104;28;20035;-72
2023/03/08 01:16:35;;;;;;;7.95;3.13;;;2.40;99.90;;;;;;5033157;28;20115;-70
2023/03/08 01:19:01;;;;;;;9.77;2.47;;;2.50;99.90;;;;;;5027054;28;20039;-72
2023/03/08 01:21:29;;;;;;;6.80;3.20;;;2.50;99.90;;;;;;5032031;28;20044;-74
2023/03/08 01:23:55;;;;;;;7.10;2.20;;;2.60;99.90;;;;;;5032958;28;20025;-73
2023/03/08 01:26:23;;;;;;;10.88;1.98;;;2.70;99.90;;;;;;5032816;28;20530;-70
2023/03/08 01:28:49;;;;;;;10.07;2.22;;;2.70;99.90;;;;;;5032551;28;20045;-72
2023/03/08 01:31:16;;;;;;;5.90;1.50;;;2.70;99.90;;;;;;5028012;28;20046;-71
2023/03/08 01:33:43;;;;;;;3.90;1.27;;;2.80;99.90;;;;;;5027049;28;20025;-70
2023/03/08 01:36:12;;;;;;;5.82;1.10;;;2.80;99.90;;;;;;5032549;28;20056;-71
2023/03/08 01:38:38;;;;;;;2.72;1.27;;;2.80;99.90;;;;;;5032642;28;20022;-70
2023/03/08 01:41:06;;;;;;;5.30;1.33;;;2.80;99.90;;;;;;5033020;28;20037;-71
2023/03/08 01:43:37;;;;;;;4.90;1.30;;;2.70;99.90;;;;;;5032357;28;20035;-71
2023/03/08 01:46:25;;;;;;;4.30;1.45;;;2.70;99.90;;;;;;5032212;28;20102;-73
2023/03/08 01:48:59;;;;;;;4.63;1.83;;;2.70;99.90;;;;;;5032453;28;20386;-72
2023/03/08 01:51:34;;;;;;;7.10;1.42;;;2.70;99.90;;;;;;5032552;28;20025;-72
2023/03/08 01:54:04;;;;;;;3.35;1.65;;;2.70;99.90;;;;;;5015755;28;20021;-72
2023/03/08 01:56:31;;;;;;;7.05;1.80;;;2.70;99.90;;;;;;5031324;28;20092;-72
2023/03/08 01:58:57;;;;;;;3.80;1.40;;;2.60;99.90;;;;;;5031969;28;20041;-72
2023/03/08 02:01:23;;;;;;;4.60;1.77;;;2.60;99.90;;;;;;5031936;28;20071;-73
2023/03/08 02:03:50;;;;;;;4.72;1.48;;;2.60;99.90;;;;;;5031697;28;20083;-71
2023/03/08 02:06:16;;;;;;;6.28;1.60;;;2.60;99.90;;;;;;5032340;28;20057;-72
2023/03/08 02:08:43;;;;;;;8.15;1.33;;;2.70;99.90;;;;;;5022707;28;20069;-73
2023/03/08 02:11:09;;;;;;;6.63;1.80;;;2.70;99.90;;;;;;5025796;28;20473;-71
2023/03/08 02:13:35;;;;;;;4.70;1.52;;;2.60;99.90;;;;;;5029266;28;20096;-73
2023/03/08 02:16:04;;;;;;;4.53;1.67;;;2.70;99.90;;;;;;5032681;28;20457;-69
2023/03/08 02:18:30;;;;;;;4.75;1.33;;;2.70;99.90;;;;;;5032288;28;20444;-69
2023/03/08 02:20:55;;;;;;;2.97;1.30;;;2.70;99.90;;;;;;5032656;28;20029;-73
2023/03/08 02:23:23;;;;;;;6.00;1.27;;;2.70;99.90;;;;;;5029525;28;20688;-70
2023/03/08 02:26:02;;;;;;;3.83;1.40;;;2.80;99.90;;;;;;5013484;28;20099;-69
2023/03/08 02:28:28;;;;;;;5.90;1.30;;;2.80;99.90;;;;;;5032368;28;20026;-72
2023/03/08 02:30:55;;;;;;;3.38;1.45;;;2.80;99.90;;;;;;5014183;28;20081;-69
2023/03/08 02:33:21;;;;;;;4.72;1.48;;;2.80;99.90;;;;;;5032084;28;20026;-70
2023/03/08 02:35:47;;;;;;;7.18;1.60;;;2.80;99.90;;;;;;5031565;28;20026;-70
2023/03/08 02:38:15;;;;;;;5.18;1.65;;;2.90;99.90;;;;;;5031973;28;20029;-70
2023/03/08 02:40:41;;;;;;;7.55;2.05;;;2.90;99.90;;;;;;5031943;28;20025;-70
2023/03/08 02:43:07;;;;;;;5.70;1.60;;;2.90;99.90;;;;;;5029279;28;20083;-72
2023/03/08 02:45:33;;;;;;;8.60;1.77;;;2.90;99.90;;;;;;5013288;28;20429;-71
2023/03/08 02:48:01;;;;;;;7.88;1.70;;;2.80;99.90;;;;;;5032004;28;20485;-71
2023/03/08 02:50:26;;;;;;;8.02;1.70;;;2.80;99.90;;;;;;5028023;28;20732;-70
2023/03/08 02:52:52;;;;;;;7.28;1.73;;;2.70;99.90;;;;;;5030784;28;20030;-70
2023/03/08 02:55:17;;;;;;;4.70;1.58;;;2.70;99.90;;;;;;5031338;28;20018;-70
2023/03/08 02:57:43;;;;;;;5.20;1.40;;;2.70;99.90;;;;;;5031630;28;20533;-71
2023/03/08 03:00:09;;;;;;;7.20;2.00;;;2.60;99.90;;;;;;5013754;28;20025;-71
2023/03/08 03:02:35;;;;;;;5.80;2.13;;;2.60;99.90;;;;;;5031194;28;20033;-71
2023/03/08 03:05:05;;;;;;;6.70;1.90;;;2.60;99.90;;;;;;5031486;28;20036;-70
2023/03/08 03:07:34;;;;;;;6.22;1.70;;;2.60;99.90;;;;;;5031282;28;20385;-71
2023/03/08 03:10:00;;;;;;;10.13;2.15;;;2.60;99.90;;;;;;5031371;28;20038;-70
2023/03/08 03:12:25;;;;;;;5.90;1.90;;;2.60;99.90;;;;;;5030278;28;20092;-70
2023/03/08 03:14:51;;;;;;;4.38;2.00;;;2.60;99.90;;;;;;5031350;28;20045;-71
2023/03/08 03:17:16;;;;;;;5.50;1.70;;;2.60;99.90;;;;;;5031215;28;20029;-71
2023/03/08 03:19:42;;;;;;;5.07;1.73;;;2.60;99.90;;;;;;5031213;28;20108;-70
2023/03/08 03:22:07;;;;;;;7.50;2.15;;;2.60;99.90;;;;;;5031636;28;20487;-71
2023/03/08 03:24:33;;;;;;;6.65;2.10;;;2.50;99.90;;;;;;5032116;28;20395;-71
2023/03/08 03:26:58;;;;;;;7.75;3.15;;;2.50;99.90;;;;;;5035016;28;20504;-71
2023/03/08 03:29:24;;;;;;;9.57;2.70;;;2.50;99.90;;;;;;5035180;28;20060;-71
2023/03/08 03:31:49;;;;;;;9.15;3.15;;;2.50;99.90;;;;;;5034583;28;20109;-71
2023/03/08 03:34:15;;;;;;;11.10;3.20;;;2.50;99.90;;;;;;5017185;28;20076;-70
2023/03/08 03:36:41;;;;;;;10.15;2.70;;;2.50;99.90;;;;;;5014076;28;20030;-70
2023/03/08 03:39:06;;;;;;;12.13;3.28;;;2.40;99.90;;;;;;5015348;28;20022;-71
2023/03/08 03:41:32;;;;;;;7.47;2.97;;;2.40;99.90;;;;;;5031382;28;20029;-70
2023/03/08 03:43:58;;;;;;;6.18;2.40;;;2.40;99.90;;;;;;5034631;28;20101;-70
2023/03/08 03:46:23;;;;;;;8.70;2.80;;;2.40;99.90;;;;;;5021978;28;20045;-70
2023/03/08 03:48:50;;;;;;;7.03;2.40;;;2.40;99.90;;;;;;5015284;28;20537;-70
2023/03/08 03:51:18;;;;;;;6.45;2.75;;;2.40;99.90;;;;;;5021048;28;20101;-71
2023/03/08 03:53:45;;;;;;;9.85;3.05;;;2.40;99.90;;;;;;5032806;28;20065;-70
2023/03/08 03:56:19;;;;;;;7.57;2.83;;;2.30;99.90;;;;;;5034983;28;20048;-70
2023/03/08 03:58:45;;;;;;;9.05;3.05;;;2.40;99.90;;;;;;5034299;28;20040;-72
2023/03/08 04:01:19;;;;;;;10.80;2.90;;;2.30;99.90;;;;;;5031507;28;20025;-72
2023/03/08 04:03:45;;;;;;;11.45;3.20;;;2.30;99.90;;;;;;5035291;28;20083;-72
2023/03/08 04:06:17;;;;;;;10.63;2.85;;;2.30;99.90;;;;;;5017170;28;20374;-72
2023/03/08 04:08:43;;;;;;;7.55;2.75;;;2.30;99.90;;;;;;5034993;28;20030;-71
2023/03/08 04:11:13;;;;;;;9.23;3.10;;;2.30;99.90;;;;;;5034994;28;20128;-71
2023/03/08 04:13:39;;;;;;;5.88;2.45;;;2.40;99.90;;;;;;5034926;28;20029;-69
2023/03/08 04:16:13;;;;;;;10.20;2.80;;;2.40;99.90;;;;;;5034917;28;20053;-72
2023/03/08 04:18:39;;;;;;;16.98;3.83;;;2.40;99.90;;;;;;5034749;28;20469;-70
2023/03/08 04:21:05;;;;;;;10.32;3.13;;;2.50;99.90;;;;;;5034875;28;20149;-71
2023/03/08 04:23:31;;;;;;;9.02;3.50;;;2.50;99.90;;;;;;5034419;28;20382;-71
2023/03/08 04:25:57;;;;;;;7.97;3.65;;;2.50;99.90;;;;;;5034514;28;20029;-69
2023/03/08 04:28:22;;;;;;;8.40;3.40;;;2.50;99.90;;;;;;5034094;28;20453;-69
2023/03/08 04:30:48;;;;;;;6.80;3.28;;;2.50;99.90;;;;;;5032872;28;20098;-72
2023/03/08 04:33:13;;;;;;;10.30;3.28;;;2.50;99.90;;;;;;5032990;28;20088;-68
2023/03/08 04:35:39;;;;;;;288.42;26.48;;;2.50;99.90;;;;;;5032790;28;20543;-71
2023/03/08 04:38:05;;;;;;;113.60;12.20;;;2.50;99.90;;;;;;5014356;28;20040;-73
2023/03/08 04:40:30;;;;;;;11.20;3.97;;;2.60;99.90;;;;;;5022744;28;20031;-72
2023/03/08 04:42:56;;;;;;;9.68;4.10;;;2.60;99.90;;;;;;5034130;28;20052;-71
2023/03/08 04:45:21;;;;;;;45.83;6.95;;;2.60;99.90;;;;;;5027601;28;20030;-73
2023/03/08 04:47:47;;;;;;;13.43;4.90;;;2.60;99.90;;;;;;5033983;28;20449;-69
2023/03/08 04:50:12;;;;;;;14.75;5.13;;;2.60;99.90;;;;;;5034305;28;20056;-70
2023/03/08 04:52:38;;;;;;;60.78;9.30;;;2.60;99.90;;;;;;5034035;28;20034;-71
2023/03/08 04:55:05;;;;;;;16.55;6.28;;;2.50;99.90;;;;;;5033645;28;20022;-70
2023/03/08 04:57:30;;;;;;;19.70;6.68;;;2.50;99.90;;;;;;5033573;28;20120;-69
2023/03/08 04:59:56;;;;;;;18.25;6.50;;;2.50;99.90;;;;;;5034161;28;20105;-72
2023/03/08 05:02:22;;;;;;;10.98;6.45;;;2.50;99.90;;;;;;5034040;28;20029;-72
2023/03/08 05:04:48;;;;;;;25.38;8.15;;;2.50;99.90;;;;;;5034298;28;20033;-71
2023/03/08 05:07:14;;;;;;;13.70;6.93;;;2.50;99.90;;;;;;5033810;28;20100;-70
2023/03/08 05:09:40;;;;;;;15.18;6.93;;;2.40;99.90;;;;;;5014690;28;20120;-71
2023/03/08 05:12:06;;;;;;;14.30;7.40;;;2.40;99.90;;;;;;5033744;28;20022;-71
2023/03/08 05:14:31;;;;;;;13.85;7.40;;;2.40;99.90;;;;;;5034014;28;20111;-72
2023/03/08 05:16:57;;;;;;;14.32;6.90;;;2.40;99.90;;;;;;5033537;28;20036;-71
2023/03/08 05:19:23;;;;;;;13.55;7.38;;;2.30;99.90;;;;;;5015953;28;20025;-70
2023/03/08 05:21:49;;;;;;;40.67;10.57;;;2.30;99.90;;;;;;5033637;28;20108;-72
2023/03/08 05:24:15;;;;;;;14.98;8.75;;;2.30;99.90;;;;;;5033027;28;20155;-71
2023/03/08 05:26:40;;;;;;;17.95;9.80;;;2.30;99.90;;;;;;5033614;28;20030;-70
2023/03/08 05:29:06;;;;;;;38.72;11.52;;;2.30;99.90;;;;;;5032255;28;20049;-71
2023/03/08 05:31:35;;;;;;;20.35;8.82;;;2.20;99.90;;;;;;5033457;28;20026;-73
2023/03/08 05:34:00;;;;;;;15.10;9.30;;;2.20;99.90;;;;;;5033118;28;20034;-70
2023/03/08 05:36:26;;;;;;;14.82;7.78;;;2.20;99.90;;;;;;5031581;28;20094;-73
2023/03/08 05:38:53;;;;;;;13.60;8.43;;;2.20;99.90;;;;;;5032535;28;20029;-70
2023/03/08 05:41:19;;;;;;;27.27;10.13;;;2.20;99.90;;;;;;5032758;28;20029;-71
2023/03/08 05:43:44;;;;;;;17.85;9.60;;;2.10;99.90;;;;;;5033770;28;20045;-69
2023/03/08 05:46:13;;;;;;;14.45;9.18;;;2.10;99.90;;;;;;5032964;28;20025;-71
2023/03/08 05:48:39;;;;;;;32.67;10.55;;;2.10;99.90;;;;;;5031714;28;20033;-72
2023/03/08 05:51:11;;;;;;;39.47;11.30;;;2.10;99.90;;;;;;5031339;28;20049;-73
2023/03/08 05:53:36;;;;;;;18.80;10.35;;;2.10;99.90;;;;;;5028981;28;20551;-70
2023/03/08 05:56:16;;;;;;;17.52;10.15;;;2.00;99.90;;;;;;5013811;28;20025;-72
2023/03/08 05:58:42;;;;;;;17.38;10.25;;;2.00;99.90;;;;;;5031365;28;20049;-72
2023/03/08 06:01:12;;;;;;;29.25;11.32;;;2.10;99.90;;;;;;5029822;28;20086;-69
2023/03/08 06:03:39;;;;;;;16.38;9.68;;;2.10;99.90;;;;;;5031910;28;20025;-70
2023/03/08 06:06:05;;;;;;;19.13;10.10;;;2.10;99.90;;;;;;5030879;28;20017;-73
2023/03/08 06:08:30;;;;;;;69.40;15.00;;;2.10;99.90;;;;;;5028313;28;20441;-71
2023/03/08 06:10:56;;;;;;;26.45;11.07;;;2.20;99.90;;;;;;5031513;28;20069;-70
2023/03/08 06:13:22;;;;;;;16.58;10.38;;;2.20;99.90;;;;;;5031129;28;20042;-71
2023/03/08 06:15:47;;;;;;;17.38;9.73;;;2.20;99.90;;;;;;5031331;28;20097;-72
2023/03/08 06:18:13;;;;;;;20.50;10.88;;;2.30;99.90;;;;;;5030586;28;20140;-70
2023/03/08 06:20:38;;;;;;;21.50;11.00;;;2.30;99.90;;;;;;5031093;28;20104;-71
2023/03/08 06:23:04;;;;;;;19.63;10.40;;;2.30;99.90;;;;;;5031045;28;20033;-70
2023/03/08 06:25:30;;;;;;;17.67;9.68;;;2.40;99.90;;;;;;5013330;28;20029;-72
2023/03/08 06:27:55;;;;;;;18.75;9.73;;;2.40;99.90;;;;;;5019647;28;20033;-73
2023/03/08 06:30:21;;;;;;;16.05;8.68;;;2.50;99.90;;;;;;5030945;28;20507;-70
2023/03/08 06:32:46;;;;;;;17.02;9.93;;;2.60;99.90;;;;;;5030947;28;20025;-71
2023/03/08 06:35:12;;;;;;;16.08;9.07;;;2.60;99.90;;;;;;5030226;28;20053;-70
2023/03/08 06:37:37;;;;;;;19.00;9.88;;;2.60;99.90;;;;;;5020777;28;20021;-72
2023/03/08 06:40:04;;;;;;;16.17;8.77;;;2.70;99.90;;;;;;5013027;28;20025;-71
2023/03/08 06:42:30;;;;;;;15.65;9.05;;;2.70;99.90;;;;;;5031089;28;20456;-70
2023/03/08 06:44:56;;;;;;;15.70;9.48;;;2.70;99.90;;;;;;5030082;28;20017;-72
2023/03/08 06:47:21;;;;;;;14.75;8.75;;;2.70;99.90;;;;;;5030875;28;20044;-73
2023/03/08 06:49:47;;;;;;;18.02;9.82;;;2.80;99.90;;;;;;5029787;28;20536;-72
2023/03/08 06:52:13;;;;;;;16.15;9.10;;;2.80;99.90;;;;;;5031066;28;20051;-69
2023/03/08 06:54:38;;;;;;;19.20;8.90;;;2.90;99.90;;;;;;5030478;28;20060;-72
2023/03/08 06:57:05;;;;;;;16.45;8.30;;;2.90;99.90;;;;;;5030665;28;20037;-69
2023/03/08 06:59:31;;;;;;;14.45;7.93;;;3.00;99.90;;;;;;5028926;28;20025;-70
2023/03/08 07:01:56;;;;;;;14.65;7.70;;;3.00;99.90;;;;;;5035362;28;20037;-70
2023/03/08 07:04:22;;;;;;;12.35;7.35;;;3.00;99.90;;;;;;5034097;28;20036;-70
2023/03/08 07:06:47;;;;;;;15.82;7.75;;;3.10;99.90;;;;;;5034411;28;20056;-71
2023/03/08 07:09:13;;;;;;;18.27;8.45;;;3.10;99.90;;;;;;5034074;28;20342;-70
2023/03/08 07:11:39;;;;;;;16.27;8.32;;;3.10;99.90;;;;;;5034447;28;20376;-70
2023/03/08 07:14:04;;;;;;;15.25;7.85;;;3.20;99.90;;;;;;5034703;28;20111;-71
2023/03/08 07:16:30;;;;;;;13.07;6.43;;;3.20;99.90;;;;;;5034679;28;20052;-69
2023/03/08 07:18:55;;;;;;;14.88;6.35;;;3.30;99.90;;;;;;5033461;28;20393;-71
2023/03/08 07:21:21;;;;;;;13.60;7.47;;;3.40;99.90;;;;;;5033759;28;20104;-69
2023/03/08 07:23:50;;;;;;;12.38;6.93;;;3.40;99.90;;;;;;5034010;28;20163;-70
2023/03/08 07:26:15;;;;;;;20.00;7.78;;;3.50;99.90;;;;;;5034336;28;20029;-69
2023/03/08 07:28:41;;;;;;;12.75;6.85;;;3.60;99.90;;;;;;5034054;28;20034;-69
2023/03/08 07:31:10;;;;;;;13.30;6.93;;;3.60;99.90;;;;;;5034349;28;20091;-70
2023/03/08 07:33:35;;;;;;;10.50;5.63;;;3.70;99.90;;;;;;5033829;28;20053;-70
2023/03/08 07:36:01;;;;;;;10.70;5.55;;;3.80;99.90;;;;;;5033935;28;20123;-70
2023/03/08 07:38:26;;;;;;;10.15;5.63;;;3.90;99.90;;;;;;5033584;28;20096;-70
2023/03/08 07:40:56;;;;;;;11.80;5.97;;;4.00;99.90;;;;;;5034957;28;20032;-70
2023/03/08 07:43:22;;;;;;;9.55;5.18;;;4.10;99.90;;;;;;5035020;28;20081;-70
2023/03/08 07:45:48;;;;;;;10.88;5.53;;;4.10;99.90;;;;;;5035074;28;20489;-69
2023/03/08 07:48:14;;;;;;;14.20;6.13;;;4.10;99.90;;;;;;5034543;28;20034;-68
2023/03/08 07:50:40;;;;;;;14.98;6.05;;;4.20;99.90;;;;;;5035369;28;20127;-69
2023/03/08 07:53:06;;;;;;;12.00;6.28;;;4.20;99.90;;;;;;5034800;28;20132;-69
2023/03/08 07:55:33;;;;;;;15.98;7.13;;;4.30;99.90;;;;;;5034953;28;20025;-70
2023/03/08 07:57:59;;;;;;;12.00;6.45;;;4.40;99.90;;;;;;5030788;28;20030;-69
2023/03/08 08:00:24;;;;;;;11.10;6.32;;;4.40;99.90;;;;;;5031077;28;20084;-69
2023/03/08 08:02:52;;;;;;;16.52;7.13;;;4.50;99.90;;;;;;5020152;28;20099;-69
2023/03/08 08:05:20;;;;;;;18.08;7.38;;;4.50;99.90;;;;;;5034724;28;20037;-68
2023/03/08 08:07:47;;;;;;;13.73;6.80;;;4.60;99.90;;;;;;5032047;28;20021;-70
2023/03/08 08:10:12;;;;;;;14.80;7.53;;;4.60;99.90;;;;;;5033486;28;20532;-69
2023/03/08 08:12:38;;;;;;;16.90;7.22;;;4.60;99.90;;;;;;5033341;28;20034;-71
2023/03/08 08:15:04;;;;;;;18.77;7.68;;;4.70;99.90;;;;;;5034447;28;20462;-68
2023/03/08 08:17:29;;;;;;;17.08;7.30;;;4.80;99.90;;;;;;5029933;28;20070;-70
2023/03/08 08:19:55;;;;;;;22.45;7.43;;;4.90;99.90;;;;;;5030936;28;20021;-70
2023/03/08 08:22:21;;;;;;;16.63;7.15;;;5.00;99.90;;;;;;5025343;28;20029;-70
2023/03/08 08:24:46;;;;;;;16.08;6.72;;;5.00;99.90;;;;;;5034375;28;20022;-69
2023/03/08 08:27:12;;;;;;;13.07;6.22;;;5.10;99.90;;;;;;5033453;28;20029;-70
2023/03/08 08:29:37;;;;;;;20.25;6.57;;;5.20;99.90;;;;;;5033365;28;20068;-69
2023/03/08 08:32:04;;;;;;;17.15;6.93;;;5.30;99.90;;;;;;5031024;28;20059;-68
2023/03/08 08:34:29;;;;;;;16.52;6.15;;;5.40;99.90;;;;;;5032787;28;20517;-69
2023/03/08 08:36:55;;;;;;;14.30;6.35;;;5.50;99.90;;;;;;5018332;28;20025;-69
2023/03/08 08:39:21;;;;;;;16.73;6.57;;;5.70;99.90;;;;;;5031847;28;20039;-70
2023/03/08 08:41:48;;;;;;;13.48;6.20;;;5.80;99.90;;;;;;5031868;28;20703;-71
2023/03/08 08:44:13;;;;;;;10.82;5.45;;;5.90;99.90;;;;;;5032004;28;20125;-71
2023/03/08 08:46:39;;;;;;;11.88;5.60;;;6.00;99.90;;;;;;5030650;28;20116;-70
2023/03/08 08:49:05;;;;;;;12.00;5.68;;;6.20;99.90;;;;;;5031017;28;20436;-69
2023/03/08 08:51:31;;;;;;;11.50;5.30;;;6.30;99.90;;;;;;5032424;28;20041;-72
2023/03/08 08:53:56;;;;;;;11.80;5.85;;;6.50;99.90;;;;;;5032616;28;20488;-69
2023/03/08 08:56:24;;;;;;;12.85;6.00;;;6.60;99.90;;;;;;5031990;28;20060;-68
2023/03/08 08:58:50;;;;;;;14.80;6.53;;;6.80;99.90;;;;;;5032135;28;20033;-69
2023/03/08 09:01:19;;;;;;;13.80;6.00;;;7.10;99.90;;;;;;5032864;28;20025;-68
2023/03/08 09:03:45;;;;;;;10.45;5.65;;;7.30;99.90;;;;;;5031842;28;20060;-71
2023/03/08 09:06:13;;;;;;;11.65;5.90;;;7.50;99.90;;;;;;5027332;28;20131;-67
2023/03/08 09:08:39;;;;;;;10.70;5.00;;;7.70;99.90;;;;;;5017500;28;20083;-69
2023/03/08 09:11:07;;;;;;;13.90;5.57;;;7.90;99.90;;;;;;5029902;28;20420;-69
2023/03/08 09:13:33;;;;;;;11.10;4.43;;;8.00;99.90;;;;;;5030794;28;20029;-70
2023/03/08 09:15:59;;;;;;;8.77;4.03;;;8.10;99.90;;;;;;5030136;28;20021;-70
2023/03/08 09:18:25;;;;;;;11.90;4.50;;;8.10;99.90;;;;;;5030767;28;20035;-69
2023/03/08 09:20:51;;;;;;;9.27;4.00;;;8.10;99.90;;;;;;5030881;28;20021;-70
2023/03/08 09:23:17;;;;;;;7.75;4.07;;;8.10;99.90;;;;;;5031122;28;20389;-69
2023/03/08 09:25:43;;;;;;;7.75;4.10;;;8.10;99.90;;;;;;5031852;28;20025;-68
2023/03/08 09:28:10;;;;;;;8.73;3.60;;;8.20;99.90;;;;;;5032112;28;20440;-71
2023/03/08 09:30:36;;;;;;;9.05;3.88;;;8.50;99.90;;;;;;5012608;28;20053;-68
2023/03/08 09:33:03;;;;;;;7.40;2.85;;;8.80;99.90;;;;;;5014065;28;20137;-70
2023/03/08 09:35:29;;;;;;;9.60;3.85;;;9.10;99.90;;;;;;5013760;28;20466;-68
2023/03/08 09:37:55;;;;;;;11.20;2.90;;;9.40;99.90;;;;;;5033540;28;20049;-69
2023/03/08 09:40:24;;;;;;;8.38;3.50;;;9.80;99.90;;;;;;5033544;28;20068;-71
2023/03/08 09:42:51;;;;;;;6.18;2.58;;;10.30;99.90;;;;;;5032912;28;20034;-68
2023/03/08 09:45:23;;;;;;;7.13;2.55;;;10.60;99.90;;;;;;5033077;28;20083;-69
2023/03/08 09:48:16;;;;;;;6.82;2.90;;;10.60;99.90;;;;;;5032270;28;20030;-68
2023/03/08 09:50:53;;;;;;;5.53;2.47;;;10.60;99.60;;;;;;5033354;28;20041;-71
2023/03/08 09:53:37;;;;;;;7.28;2.53;;;10.60;99.90;;;;;;5033173;28;20035;-69
2023/03/08 09:56:14;;;;;;;5.78;2.58;;;10.50;99.50;;;;;;5033050;28;20029;-70
2023/03/08 09:58:46;;;;;;;5.25;2.50;;;10.70;99.90;;;;;;5033247;28;20029;-68
2023/03/08 10:01:45;;;;;;;8.75;2.47;;;10.90;99.20;;;;;;5031904;28;20057;-68
2023/03/08 10:04:14;;;;;;;4.20;2.10;;;11.30;99.40;;;;;;5033015;28;20049;-69
2023/03/08 10:07:09;;;;;;;9.95;3.03;;;12.10;98.30;;;;;;5032625;28;20021;-69
2023/03/08 10:09:45;;;;;;;4.25;2.00;;;12.70;97.50;;;;;;5032801;28;20033;-67
2023/03/08 10:12:22;;;;;;;6.22;2.20;;;12.90;95.00;;;;;;5031770;28;20083;-67
2023/03/08 10:14:51;;;;;;;6.40;2.08;;;12.70;95.30;;;;;;5031755;28;20030;-70
2023/03/08 10:17:24;;;;;;;7.43;2.47;;;12.70;95.50;;;;;;5031443;28;20029;-69
2023/03/08 10:19:58;;;;;;;7.28;2.92;;;12.60;95.30;;;;;;5031228;28;20033;-70
2023/03/08 10:22:29;;;;;;;6.45;2.38;;;12.40;95.70;;;;;;5031051;28;20030;-68
2023/03/08 10:25:13;;;;;;;4.97;2.33;;;12.20;95.70;;;;;;5031018;28;20064;-68
2023/03/08 10:27:39;;;;;;;7.22;2.50;;;12.40;96.50;;;;;;5031553;28;20104;-67
2023/03/08 10:30:15;;;;;;;7.70;3.72;;;12.70;95.10;;;;;;5031044;28;20129;-70
2023/03/08 10:32:44;;;;;;;13.38;5.70;;;12.90;96.00;;;;;;5031727;28;20043;-68
2023/03/08 10:35:09;;;;;;;6.63;2.25;;;13.60;96.70;;;;;;5031415;28;20063;-71
2023/03/08 10:37:35;;;;;;;7.80;2.80;;;14.00;94.40;;;;;;5032539;28;20069;-70
2023/03/08 10:40:07;;;;;;;6.20;2.40;;;14.00;93.50;;;;;;5032788;28;20116;-68
2023/03/08 10:42:34;;;;;;;5.55;2.20;;;13.60;93.00;;;;;;5032450;28;20029;-69
2023/03/08 10:45:02;;;;;;;6.15;2.45;;;12.90;93.30;;;;;;5031714;28;20030;-69
2023/03/08 10:47:33;;;;;;;7.90;2.60;;;12.30;94.20;;;;;;5032499;28;20538;-70
2023/03/08 10:50:16;;;;;;;7.70;2.65;;;11.80;95.10;;;;;;5032336;28;20389;-67
2023/03/08 10:52:44;;;;;;;10.73;3.08;;;11.40;95.40;;;;;;5029915;28;20064;-67
2023/03/08 10:55:11;;;;;;;8.15;3.58;;;11.10;95.60;;;;;;5031141;28;20105;-68
2023/03/08 10:57:39;;;;;;;10.50;2.97;;;10.90;96.00;;;;;;5032066;28;20041;-70
2023/03/08 11:00:28;;;;;;;8.77;3.65;;;10.60;96.80;;;;;;5032347;28;20018;-69
2023/03/08 11:03:18;;;;;;;9.00;3.85;;;10.50;96.80;;;;;;5021714;28;20033;-68
2023/03/08 11:06:04;;;;;;;9.05;3.38;;;10.30;97.30;;;;;;5031765;28;20049;-69
2023/03/08 11:08:36;;;;;;;10.75;3.80;;;10.10;97.50;;;;;;5029888;28;20033;-69
2023/03/08 11:11:06;;;;;;;11.77;4.10;;;9.90;98.10;;;;;;5031432;28;20049;-68
2023/03/08 11:13:46;;;;;;;9.45;3.60;;;9.80;98.10;;;;;;5031887;28;20033;-69
2023/03/08 11:16:24;;;;;;;7.75;3.45;;;9.60;98.10;;;;;;5031112;28;20025;-67
2023/03/08 11:18:56;;;;;;;10.35;3.55;;;9.40;98.50;;;;;;5029855;28;20041;-69
2023/03/08 11:21:42;;;;;;;10.73;4.03;;;9.30;98.60;;;;;;5031417;28;20080;-68
2023/03/08 11:24:50;;;;;;;10.15;3.95;;;9.20;99.30;;;;;;5005479;28;20035;-69
2023/03/08 11:27:24;;;;;;;12.15;4.03;;;9.20;99.70;;;;;;5030233;28;20164;-68
2023/03/08 11:30:10;;;;;;;10.60;4.38;;;9.20;99.70;;;;;;5018352;28;20053;-68
2023/03/08 11:32:53;;;;;;;12.95;4.70;;;9.20;99.70;;;;;;5019459;28;20052;-69
2023/03/08 11:35:19;;;;;;;;;;;9.20;99.70;;;;;;5018217;28;20034;-70
2023/03/08 11:38:11;;;;;;;15.43;6.07;;;9.10;99.50;;;;;;5031256;28;19909;-69
2023/03/08 11:40:46;;;;;;;15.27;6.15;;;9.20;99.90;;;;;;5031520;28;20037;-69
2023/03/08 11:43:45;;;;;;;15.18;5.82;;;9.40;99.90;;;;;;5031590;28;20025;-68
2023/03/08 11:46:21;;;;;;;15.07;6.50;;;9.50;99.90;;;;;;5033410;28;20013;-70
2023/03/08 11:49:10;;;;;;;14.60;5.90;;;9.50;99.90;;;;;;5035725;28;20037;-66
2023/03/08 11:51:41;;;;;;;15.55;6.47;;;9.60;99.50;;;;;;5017343;28;20045;-70
2023/03/08 11:54:16;;;;;;;17.10;7.50;;;9.60;99.80;;;;;;5035271;28;20390;-68
2023/03/08 11:56:49;;;;;;;12.30;5.22;;;9.60;99.60;;;;;;5035778;28;20048;-67
2023/03/08 11:59:30;;;;;;;11.55;5.05;;;9.50;99.40;;;;;;5034029;28;20028;-69
2023/03/08 12:02:09;;;;;;;16.90;6.07;;;9.30;99.40;;;;;;5017433;28;20495;-68
2023/03/08 12:05:01;;;;;;;14.05;5.80;;;9.30;99.50;;;;;;5035560;28;20041;-68
2023/03/08 12:07:34;;;;;;;12.80;6.13;;;9.20;99.30;;;;;;5034713;28;20024;-70
2023/03/08 12:10:20;;;;;;;14.95;6.88;;;9.10;99.50;;;;;;5034527;28;20171;-67
2023/03/08 12:12:57;;;;;;;17.27;6.78;;;8.90;99.80;;;;;;5034846;28;20071;-68
2023/03/08 12:15:55;;;;;;;19.65;7.40;;;8.70;99.90;;;;;;5031332;28;20481;-68
2023/03/08 12:18:33;;;;;;;15.32;6.90;;;8.60;99.90;;;;;;5027313;28;20044;-69
2023/03/08 12:21:12;;;;;;;18.73;7.68;;;8.60;99.90;;;;;;5025396;28;20060;-69
2023/03/08 12:24:17;;;;;;;17.27;8.55;;;8.60;99.90;;;;;;5035075;28;20057;-70
2023/03/08 12:26:48;;;;;;;13.07;6.30;;;8.60;99.90;;;;;;5015158;28;20536;-69
2023/03/08 12:29:21;;;;;;;15.07;6.47;;;8.50;99.90;;;;;;5014871;28;20058;-68
2023/03/08 12:31:48;;;;;;;12.85;6.00;;;8.40;99.90;;;;;;5015232;28;20042;-69
2023/03/08 12:34:35;;;;;;;12.68;5.47;;;8.40;99.90;;;;;;5024413;28;20032;-66
2023/03/08 12:37:01;;;;;;;15.52;6.72;;;8.30;99.90;;;;;;5034962;28;20034;-70
2023/03/08 12:39:36;;;;;;;12.38;6.00;;;8.20;99.90;;;;;;5034666;28;20036;-68
2023/03/08 12:42:14;;;;;;;15.30;6.38;;;8.20;99.90;;;;;;5034565;28;20061;-71
2023/03/08 12:44:40;;;;;;;15.00;5.65;;;8.20;99.90;;;;;;5034782;28;20037;-68
2023/03/08 12:47:12;;;;;;;11.77;5.95;;;8.10;99.90;;;;;;5034463;28;20083;-70
2023/03/08 12:49:42;;;;;;;12.55;5.40;;;8.10;99.90;;;;;;5034216;28;20128;-70
2023/03/08 12:52:16;;;;;;;13.63;5.43;;;8.00;99.90;;;;;;5033011;28;20052;-70
2023/03/08 12:54:43;;;;;;;13.20;5.20;;;8.00;99.90;;;;;;5014175;28;20474;-68
2023/03/08 12:57:22;;;;;;;13.02;5.95;;;8.00;99.90;;;;;;5007327;28;20028;-70
2023/03/08 12:59:54;;;;;;;11.45;5.47;;;8.00;99.90;;;;;;5034449;28;20533;-70